createdAt,value
2022-11-01T06:40:35.445Z,97297.34
2022-11-01T06:43:05.693Z,97308.59
2022-11-01T06:45:34.046Z,97311.78
2022-11-01T06:48:02.562Z,97312.88
2022-11-01T06:50:31.132Z,97320.06
2022-11-01T06:53:00.166Z,97327.28
2022-11-01T06:55:28.855Z,97331.50
2022-11-01T06:57:59.799Z,97333.13
2022-11-01T07:00:29.397Z,97341.69
2022-11-01T07:03:01.296Z,97347.81
2022-11-01T07:21:45.831Z,97383.09
2022-11-01T07:24:13.851Z,97377.72
2022-11-01T07:26:41.921Z,97381.44
2022-11-01T07:29:09.960Z,97388.69
2022-11-01T07:31:38.891Z,97389.72
2022-11-01T07:34:07.170Z,97394.25
2022-11-01T07:36:35.326Z,97401.50
2022-11-01T07:39:05.033Z,97399.31
2022-11-01T07:41:33.424Z,97395.84
2022-11-01T07:44:01.457Z,97398.25
2022-11-01T07:46:30.531Z,97397.09
2022-11-01T07:49:00.443Z,97401.34
2022-11-01T07:51:28.766Z,97406.41
2022-11-01T07:53:56.916Z,97393.75
2022-11-01T07:56:26.369Z,97398.59
2022-11-01T07:58:54.475Z,97402.56
2022-11-01T08:01:22.746Z,97410.91
2022-11-01T08:03:50.837Z,97408.69
2022-11-01T08:06:18.960Z,97403.00
2022-11-01T08:08:47.070Z,97404.28
2022-11-01T08:11:15.118Z,97404.28
2022-11-01T08:13:44.690Z,97403.47
2022-11-01T08:16:18.002Z,97397.53
2022-11-01T08:18:46.226Z,97404.69
2022-11-01T08:21:18.711Z,97408.38
2022-11-01T08:23:46.944Z,97411.53
2022-11-01T08:26:15.261Z,97406.66
2022-11-01T08:28:44.686Z,97414.09
2022-11-01T08:31:12.782Z,97420.00
2022-11-01T08:33:40.879Z,97417.16
2022-11-01T08:36:08.994Z,97403.66
2022-11-01T08:38:37.105Z,97404.63
2022-11-01T08:41:05.380Z,97404.50
2022-11-01T08:43:37.980Z,97400.97
2022-11-01T08:46:10.943Z,97395.75
2022-11-01T08:48:39.033Z,97396.13
2022-11-01T08:51:07.183Z,97396.59
2022-11-01T08:53:35.213Z,97387.88
2022-11-01T08:56:03.390Z,97395.00
2022-11-01T08:58:31.428Z,97396.25
2022-11-01T09:00:59.521Z,97401.56
2022-11-01T09:03:28.969Z,97407.69
2022-11-01T09:05:58.482Z,97413.94
2022-11-01T09:08:26.578Z,97407.81
2022-11-01T09:10:58.811Z,97413.56
2022-11-01T09:13:52.018Z,97400.53
2022-11-01T09:16:20.635Z,97396.19
2022-11-01T09:18:50.298Z,97389.59
2022-11-01T09:21:18.357Z,97391.09
2022-11-01T09:23:47.086Z,97388.53
2022-11-01T09:26:15.134Z,97387.56
2022-11-01T09:28:43.269Z,97396.56
2022-11-01T09:31:20.795Z,97404.53
2022-11-01T09:33:51.048Z,97403.28
2022-11-01T09:36:19.073Z,97411.78
2022-11-01T09:38:47.123Z,97424.59
2022-11-01T09:41:24.619Z,97428.16
2022-11-01T09:43:54.323Z,97428.59
2022-11-01T09:46:25.955Z,97426.69
2022-11-01T09:48:56.084Z,97429.28
2022-11-01T09:51:25.744Z,97433.78
2022-11-01T09:53:55.574Z,97424.91
2022-11-01T09:56:30.543Z,97414.63
2022-11-01T09:59:05.256Z,97420.22
2022-11-01T10:01:45.045Z,97426.13
2022-11-01T10:04:28.223Z,97418.44
2022-11-01T10:07:00.539Z,97412.16
2022-11-01T10:09:35.495Z,97406.25
2022-11-01T10:12:25.086Z,97408.41
2022-11-01T10:15:02.777Z,97412.78
2022-11-01T10:17:47.025Z,97409.53
2022-11-01T10:20:20.717Z,97405.31
2022-11-01T10:22:50.274Z,97405.06
2022-11-01T10:25:22.165Z,97394.66
2022-11-01T10:28:00.873Z,97399.63
2022-11-01T10:30:31.853Z,97399.19
2022-11-01T10:33:03.285Z,97407.69
2022-11-01T10:35:36.550Z,97404.97
2022-11-01T10:38:24.850Z,97412.31
2022-11-01T10:40:58.065Z,97398.06
2022-11-01T10:43:27.059Z,97407.16
2022-11-01T10:45:57.128Z,97408.66
2022-11-01T10:48:31.942Z,97405.81
2022-11-01T10:51:03.750Z,97412.22
2022-11-01T10:53:34.610Z,97414.16
2022-11-01T10:56:08.948Z,97412.91
2022-11-01T10:58:39.591Z,97404.66
2022-11-01T11:01:13.399Z,97415.03
2022-11-01T11:03:42.339Z,97414.22
2022-11-01T11:06:13.425Z,97418.75
2022-11-01T11:08:43.313Z,97413.69
2022-11-01T11:11:17.380Z,97417.84
2022-11-01T11:13:47.514Z,97415.81
2022-11-01T11:16:20.547Z,97408.00
2022-11-01T11:19:02.122Z,97408.81
2022-11-01T11:21:35.897Z,97409.75
2022-11-01T11:24:04.172Z,97410.88
2022-11-01T11:26:38.871Z,97413.78
2022-11-01T11:29:07.254Z,97412.22
2022-11-01T11:31:35.838Z,97411.91
2022-11-01T11:34:07.713Z,97411.59
2022-11-01T11:36:41.978Z,97412.09
2022-11-01T11:39:25.051Z,97403.19
2022-11-01T11:41:53.097Z,97401.75
2022-11-01T11:44:42.168Z,97396.06
2022-11-01T11:47:20.625Z,97394.78
2022-11-01T11:49:50.214Z,97386.16
2022-11-01T11:52:26.756Z,97394.13
2022-11-01T11:54:56.627Z,97387.59
2022-11-01T11:57:26.914Z,97383.75
2022-11-01T11:59:56.663Z,97387.25
2022-11-01T12:02:27.059Z,97385.19
2022-11-01T12:04:58.106Z,97380.06
2022-11-01T12:07:30.332Z,97378.78
2022-11-01T12:10:02.161Z,97373.66
2022-11-01T12:12:31.919Z,97377.94
2022-11-01T12:15:02.023Z,97381.81
2022-11-01T12:17:33.125Z,97384.34
2022-11-01T12:20:11.267Z,97381.91
2022-11-01T12:22:42.256Z,97382.38
2022-11-01T12:25:15.059Z,97380.78
2022-11-01T12:27:48.840Z,97393.22
2022-11-01T12:30:18.714Z,97390.66
2022-11-01T12:32:49.563Z,97394.81
2022-11-01T12:35:23.143Z,97389.88
2022-11-01T12:38:01.057Z,97385.72
2022-11-01T12:40:31.393Z,97389.56
2022-11-01T12:43:03.235Z,97392.56
2022-11-01T12:45:35.007Z,97381.06
2022-11-01T12:48:06.358Z,97374.69
2022-11-01T12:50:41.766Z,97386.66
2022-11-01T12:53:14.157Z,97384.72
2022-11-01T12:55:43.083Z,97391.38
2022-11-01T12:58:16.122Z,97388.19
2022-11-01T13:00:55.317Z,97379.88
2022-11-01T13:03:32.524Z,97379.69
2022-11-01T13:06:07.708Z,97385.41
2022-11-01T13:08:43.329Z,97383.16
2022-11-01T13:11:19.390Z,97384.09
2022-11-01T13:13:50.206Z,97379.94
2022-11-01T13:16:20.734Z,97381.84
2022-11-01T13:18:51.877Z,97382.03
2022-11-01T13:21:28.870Z,97382.69
2022-11-01T13:24:03.612Z,97383.09
2022-11-01T13:26:35.683Z,97390.00
2022-11-01T13:29:09.103Z,97382.50
2022-11-01T13:31:45.838Z,97387.72
2022-11-01T13:34:28.097Z,97391.41
2022-11-01T13:37:00.584Z,97392.81
2022-11-01T13:39:38.061Z,97394.84
2022-11-01T13:42:10.881Z,97392.41
2022-11-01T13:44:42.320Z,97402.66
2022-11-01T13:47:24.576Z,97391.22
2022-11-01T13:50:14.545Z,97392.09
2022-11-01T13:52:44.729Z,97388.88
2022-11-01T13:55:22.073Z,97386.47
2022-11-01T13:57:50.230Z,97384.88
2022-11-01T14:00:42.852Z,97392.50
2022-11-01T14:03:22.683Z,97388.47
2022-11-01T14:06:24.269Z,97388.78
2022-11-01T14:08:54.856Z,97389.69
2022-11-01T14:11:51.262Z,97391.63
2022-11-01T14:14:50.902Z,97395.97
2022-11-01T14:18:03.635Z,97395.66
2022-11-01T14:20:51.937Z,97396.16
2022-11-01T14:23:48.063Z,97395.50
2022-11-01T14:26:38.601Z,97403.03
2022-11-01T14:29:12.538Z,97403.00
2022-11-01T14:31:41.205Z,97407.31
2022-11-01T14:34:11.275Z,97398.16
2022-11-01T14:36:41.969Z,97397.53
2022-11-01T14:39:15.393Z,97395.13
2022-11-01T14:41:44.624Z,97402.47
2022-11-01T14:44:18.917Z,97400.56
2022-11-01T14:46:50.282Z,97398.97
2022-11-01T14:49:25.034Z,97396.25
2022-11-01T14:51:57.841Z,97399.78
2022-11-01T14:54:32.018Z,97403.47
2022-11-01T14:57:00.963Z,97407.78
2022-11-01T14:59:32.770Z,97412.72
2022-11-01T15:02:03.398Z,97405.69
2022-11-01T15:04:33.352Z,97416.56
2022-11-01T15:07:01.988Z,97418.78
2022-11-01T15:09:32.064Z,97421.06
2022-11-01T15:12:05.950Z,97419.47
2022-11-01T15:14:37.144Z,97418.53
2022-11-01T15:17:05.570Z,97422.34
2022-11-01T15:19:38.101Z,97419.97
2022-11-01T15:22:06.567Z,97421.44
2022-11-01T15:24:35.822Z,97423.66
2022-11-01T15:27:07.585Z,97420.47
2022-11-01T15:29:37.488Z,97426.56
2022-11-01T15:32:05.688Z,97427.19
2022-11-01T15:34:36.471Z,97422.41
2022-11-01T15:37:12.118Z,97433.09
2022-11-01T15:39:40.176Z,97429.75
2022-11-01T15:42:15.816Z,97433.44
2022-11-01T15:44:46.405Z,97432.16
2022-11-01T15:47:18.348Z,97432.31
2022-11-01T15:50:11.172Z,97434.09
2022-11-01T15:52:39.765Z,97435.88
2022-11-01T15:55:10.441Z,97428.66
2022-11-01T15:57:42.508Z,97440.03
2022-11-01T16:00:18.777Z,97442.88
2022-11-01T16:02:49.810Z,97440.34
2022-11-01T16:05:20.390Z,97450.25
2022-11-01T16:07:48.755Z,97449.28
2022-11-01T16:10:19.894Z,97451.03
2022-11-01T16:12:48.253Z,97457.41
2022-11-01T16:15:25.819Z,97454.88
2022-11-01T16:17:57.301Z,97454.69
2022-11-01T16:20:31.865Z,97454.53
2022-11-01T16:23:01.107Z,97451.69
2022-11-01T16:25:31.727Z,97462.34
2022-11-01T16:28:05.362Z,97450.53
2022-11-01T16:30:38.774Z,97456.94
2022-11-01T16:33:25.131Z,97454.03
2022-11-01T16:35:55.220Z,97461.06
2022-11-01T16:38:43.322Z,97467.72
2022-11-01T16:41:20.393Z,97478.34
2022-11-01T16:43:49.243Z,97485.69
2022-11-01T16:46:19.831Z,97480.59
2022-11-01T16:48:53.559Z,97476.59
2022-11-01T16:51:24.840Z,97478.81
2022-11-01T16:53:52.968Z,97483.75
2022-11-01T16:56:36.247Z,97498.41
2022-11-01T16:59:07.796Z,97505.53
2022-11-01T17:01:37.263Z,97506.19
2022-11-01T17:04:05.792Z,97512.22
2022-11-01T17:06:38.594Z,97512.84
2022-11-01T17:09:12.767Z,97513.97
2022-11-01T17:11:41.713Z,97518.91
2022-11-01T17:14:12.029Z,97520.00
2022-11-01T17:16:43.422Z,97526.53
2022-11-01T17:19:19.019Z,97523.31
2022-11-01T17:21:47.178Z,97521.25
2022-11-01T17:24:19.169Z,97520.47
2022-11-01T17:26:47.261Z,97525.38
2022-11-01T17:29:15.498Z,97532.22
2022-11-01T17:31:44.866Z,97527.91
2022-11-01T17:34:12.931Z,97529.03
2022-11-01T17:36:42.862Z,97525.00
2022-11-01T17:39:11.424Z,97540.44
2022-11-01T17:41:39.455Z,97534.56
2022-11-01T17:44:07.910Z,97547.31
2022-11-01T17:46:36.793Z,97537.09
2022-11-01T17:49:06.464Z,97534.72
2022-11-01T17:51:34.754Z,97535.31
2022-11-01T17:54:02.864Z,97536.75
2022-11-01T17:56:31.193Z,97537.34
2022-11-01T17:58:59.265Z,97544.97
2022-11-01T18:01:27.416Z,97534.78
2022-11-01T18:03:55.578Z,97537.78
2022-11-01T18:06:24.959Z,97540.00
2022-11-01T18:08:54.077Z,97536.81
2022-11-01T18:11:41.143Z,97535.06
2022-11-01T18:14:14.977Z,97540.25
2022-11-01T18:16:48.034Z,97542.50
2022-11-01T18:19:29.505Z,97539.88
2022-11-01T18:22:05.702Z,97531.31
2022-11-01T18:24:36.050Z,97541.31
2022-11-01T18:27:10.170Z,97541.13
2022-11-01T18:29:40.372Z,97541.75
2022-11-01T18:32:14.532Z,97534.75
2022-11-01T18:34:48.192Z,97540.16
2022-11-01T18:37:23.467Z,97545.81
2022-11-01T18:39:59.366Z,97540.13
2022-11-01T18:42:27.613Z,97547.63
2022-11-01T18:44:58.732Z,97541.63
2022-11-01T18:47:31.361Z,97535.13
2022-11-01T18:50:03.072Z,97536.38
2022-11-01T18:52:34.127Z,97538.78
2022-11-01T18:55:02.341Z,97537.69
2022-11-01T18:57:31.256Z,97539.59
2022-11-01T18:59:59.310Z,97539.59
2022-11-01T19:02:28.185Z,97541.50
2022-11-01T19:05:02.982Z,97542.59
2022-11-01T19:07:57.063Z,97542.09
2022-11-01T19:10:22.188Z,97539.72
2022-11-01T19:12:54.637Z,97549.03
2022-11-01T19:15:53.204Z,97553.13
2022-11-01T19:18:23.656Z,97554.22
2022-11-01T19:20:53.960Z,97549.63
2022-11-01T19:23:25.884Z,97548.81
2022-11-01T19:25:53.969Z,97550.41
2022-11-01T19:28:26.671Z,97552.03
2022-11-01T19:30:56.651Z,97556.63
2022-11-01T19:33:31.962Z,97551.22
2022-11-01T19:36:01.477Z,97540.41
2022-11-01T19:38:31.171Z,97545.81
2022-11-01T19:40:59.625Z,97548.00
2022-11-01T19:43:31.323Z,97541.81
2022-11-01T19:46:00.055Z,97551.03
2022-11-01T19:48:29.987Z,97544.03
2022-11-01T19:50:58.197Z,97547.34
2022-11-01T19:53:27.887Z,97554.97
2022-11-01T19:56:00.483Z,97550.66
2022-11-01T19:58:37.295Z,97552.38
2022-11-01T20:01:32.377Z,97551.38
2022-11-01T20:04:02.307Z,97549.28
2022-11-01T20:06:35.275Z,97539.19
2022-11-01T20:09:05.728Z,97543.94
2022-11-01T20:11:35.493Z,97546.84
2022-11-01T20:14:03.646Z,97549.03
2022-11-01T20:16:31.928Z,97560.16
2022-11-01T20:18:59.941Z,97544.97
2022-11-01T20:21:28.738Z,97543.56
2022-11-01T20:23:56.921Z,97546.06
2022-11-01T20:26:24.925Z,97545.06
2022-11-01T20:28:54.475Z,97559.16
2022-11-01T20:31:22.624Z,97559.34
2022-11-01T20:33:51.008Z,97562.28
2022-11-01T20:36:19.046Z,97567.34
2022-11-01T20:38:47.403Z,97570.06
2022-11-01T20:41:16.064Z,97571.66
2022-11-01T20:43:44.379Z,97579.34
2022-11-01T20:46:13.907Z,97577.94
2022-11-01T20:48:43.031Z,97586.53
2022-11-01T20:51:11.069Z,97591.94
2022-11-01T20:53:39.115Z,97587.94
2022-11-01T20:56:07.671Z,97592.44
2022-11-01T20:58:39.837Z,97588.41
2022-11-01T21:01:16.314Z,97599.72
2022-11-01T21:03:44.640Z,97588.13
2022-11-01T21:06:14.145Z,97588.94
2022-11-01T21:08:43.126Z,97585.72
2022-11-01T21:11:15.697Z,97598.72
2022-11-01T21:13:45.645Z,97595.50
2022-11-01T21:16:23.644Z,97588.75
2022-11-01T21:18:53.870Z,97602.88
2022-11-01T21:21:45.215Z,97598.03
2022-11-01T21:24:32.613Z,97597.34
2022-11-01T21:27:22.905Z,97595.25
2022-11-01T21:29:51.852Z,97597.44
2022-11-01T21:32:30.525Z,97602.91
2022-11-01T21:34:59.155Z,97604.00
2022-11-01T21:37:29.522Z,97603.00
2022-11-01T21:40:03.362Z,97607.97
2022-11-01T21:42:35.533Z,97600.69
2022-11-01T21:45:24.550Z,97601.38
2022-11-01T21:47:54.552Z,97601.88
2022-11-01T21:50:22.624Z,97598.69
2022-11-01T21:52:50.719Z,97590.88
2022-11-01T21:55:18.784Z,97598.44
2022-11-01T21:57:46.829Z,97594.94
2022-11-01T22:00:15.684Z,97591.44
2022-11-01T22:02:43.942Z,97586.06
2022-11-01T22:05:13.639Z,97586.88
2022-11-01T22:07:41.804Z,97587.47
2022-11-01T22:10:10.604Z,97592.34
2022-11-01T22:12:38.634Z,97590.25
2022-11-01T22:15:07.988Z,97589.72
2022-11-01T22:17:36.012Z,97580.63
2022-11-01T22:20:04.526Z,97581.72
2022-11-01T22:22:33.909Z,97573.72
2022-11-01T22:25:01.911Z,97575.59
2022-11-01T22:27:29.926Z,97579.47
2022-11-01T22:29:58.052Z,97574.06
2022-11-01T22:32:26.029Z,97583.53
2022-11-01T22:34:54.045Z,97581.72
2022-11-01T22:37:22.048Z,97574.13
2022-11-01T22:39:53.118Z,97567.66
2022-11-01T22:42:22.098Z,97574.63
2022-11-01T22:44:51.205Z,97571.44
2022-11-01T22:47:23.499Z,97579.13
2022-11-01T22:49:52.887Z,97573.50
2022-11-01T22:52:32.709Z,97580.00
2022-11-01T22:55:05.782Z,97586.75
2022-11-01T22:57:36.058Z,97585.66
2022-11-01T23:00:29.865Z,97573.28
2022-11-01T23:03:23.710Z,97575.47
2022-11-01T23:05:52.902Z,97576.03
2022-11-01T23:08:25.418Z,97577.38
2022-11-01T23:10:55.370Z,97577.97
2022-11-01T23:13:43.987Z,97577.19
2022-11-01T23:16:24.148Z,97586.13
2022-11-01T23:18:52.755Z,97578.31
2022-11-01T23:21:22.677Z,97586.94
